Lincoln, NE (68521)

2:04 PM CDT on July 06, 2015 (GMT -0500)
Belmont | | Change Station
CLOSE
Current Station
Personal Weather Station
Location: Lincoln, NE
Elevation: 1247 ft
Nearby Weather Stations

Elev 1247 ft 40.85 °N, 96.70 °W | Updated 13 minutes ago

Overcast
Overcast
74.8 °F
Feels Like 74 °F
N
1.1
Wind Variable Wind from West

Today
High -- | Low -- °F
--% Chance of Precip.
Yesterday
High -- | Low -- °F
Precip. -- in
6:01 AM 9:01 PM
Waning Gibbous, 73% visible
Pressure 29.94 in
Visibility 1.5 miles
Clouds Overcast 3800 ft
Heat Index 74 °F
Dew Point 71 °F
Humidity 87%
Rainfall 0.04 in
Snow Depth Not available.
UV 4 out of 12
Pollen 1.90 out of 12
Air Quality Not available.
Flu Activity Not available.
SPECI KLNK 061900Z 34008KT 1 1/2SM R36/1800VP6000FT RA BR OVC038 23/22 A2994 RMK AO2 VIS 1/2V5 P0000 T02280217

More Conditions Fewer Conditions

Pressure 29.94 in
Visibility 1.5 miles
Clouds Overcast 3800 ft
Heat Index 74 °F
Dew Point 71 °F
Humidity 87%
Rainfall 0.04 in
Snow Depth Not available.
UV 4 out of 12
Pollen 1.90 out of 12
Air Quality Not available.
Flu Activity Not available.
SPECI KLNK 061900Z 34008KT 1 1/2SM R36/1800VP6000FT RA BR OVC038 23/22 A2994 RMK AO2 VIS 1/2V5 P0000 T02280217

More Conditions Fewer Conditions

10-Day Weather Forecast

×

Almanac

Astronomy

Jul. 06, 2015 Rise Set
Actual Time
Civil Twilight
Nautical Twilight
Astronomical Twilight
Moon
Length of Visible Light
Length of Day
Tomorrow will be .
, % of the Moon is Illuminated

Today's Extremes

State Highs State Lows

Community

WunderPhotos

Upload Photos

1,835,616 photos uploaded!

WunderBlogs® & News

Nearby

Air Quality

  Air Quality AQ Index Pollutant
Not available.

Snow Depth

Station Depth Elevation

Earthquake Activity

City Distance Mag. Time & Date
Minimum magnitude displayed is 2.5.

Coastal Water Temperatures

Place Temperature

Stations

Nearby Weather Stations

Station Location Temp. Windchill Dew Point Humidity Wind Precip. Elev Updated Type